sensor_id;sensor_type;location;lat;lon;timestamp;pressure;altitude;pressure_sealevel;temperature;humidity
22311;BME280;11323;49.610;11.016;2023-12-29T19:04:05;97985.31;;;11.52;69.88
22311;BME280;11323;49.610;11.016;2023-12-29T19:30:54;97988.03;;;10.21;69.98
22311;BME280;11323;49.610;11.016;2023-12-29T19:36:32;97975.53;;;10.10;70.00
22311;BME280;11323;49.610;11.016;2023-12-29T19:43:07;97972.06;;;9.98;69.84
22311;BME280;11323;49.610;11.016;2023-12-29T19:48:48;97968.97;;;9.89;70.49
22311;BME280;11323;49.610;11.016;2023-12-29T19:53:51;97966.69;;;9.81;71.39
22311;BME280;11323;49.610;11.016;2023-12-29T19:58:53;97979.47;;;9.79;70.06
22311;BME280;11323;49.610;11.016;2023-12-29T20:04:05;97984.19;;;9.72;70.72
22311;BME280;11323;49.610;11.016;2023-12-29T20:09:13;97953.72;;;9.73;70.66
22311;BME280;11323;49.610;11.016;2023-12-29T20:14:23;97973.03;;;9.75;70.41
22311;BME280;11323;49.610;11.016;2023-12-29T20:19:24;97964.50;;;9.78;70.34
22311;BME280;11323;49.610;11.016;2023-12-29T20:24:42;97980.97;;;9.87;70.43
22311;BME280;11323;49.610;11.016;2023-12-29T20:29:51;97968.59;;;9.97;70.15
22311;BME280;11323;49.610;11.016;2023-12-29T20:35:00;97979.22;;;10.09;69.72
22311;BME280;11323;49.610;11.016;2023-12-29T20:40:05;97970.50;;;10.14;69.35
22311;BME280;11323;49.610;11.016;2023-12-29T20:45:08;97971.16;;;10.21;69.39
22311;BME280;11323;49.610;11.016;2023-12-29T20:50:12;97962.72;;;10.29;69.19
22311;BME280;11323;49.610;11.016;2023-12-29T20:55:14;97965.47;;;10.34;68.80
22311;BME280;11323;49.610;11.016;2023-12-29T21:00:17;97961.75;;;10.35;68.96
22311;BME280;11323;49.610;11.016;2023-12-29T21:05:18;97965.00;;;10.37;68.96
22311;BME280;11323;49.610;11.016;2023-12-29T21:10:20;97957.84;;;10.42;68.99
22311;BME280;11323;49.610;11.016;2023-12-29T21:15:21;97964.34;;;10.46;69.00
22311;BME280;11323;49.610;11.016;2023-12-29T21:20:23;97951.81;;;10.52;68.54
22311;BME280;11323;49.610;11.016;2023-12-29T21:25:28;97961.97;;;10.50;68.26
22311;BME280;11323;49.610;11.016;2023-12-29T21:30:34;97966.75;;;10.48;68.49
22311;BME280;11323;49.610;11.016;2023-12-29T21:35:42;97967.25;;;10.45;68.49
22311;BME280;11323;49.610;11.016;2023-12-29T21:40:46;97966.19;;;10.46;68.54
22311;BME280;11323;49.610;11.016;2023-12-29T21:45:48;97964.00;;;10.43;68.67
22311;BME280;11323;49.610;11.016;2023-12-29T21:50:55;97952.63;;;10.36;68.63
22311;BME280;11323;49.610;11.016;2023-12-29T21:55:56;97958.81;;;10.36;68.40
22311;BME280;11323;49.610;11.016;2023-12-29T22:01:29;97958.56;;;10.38;68.56
22311;BME280;11323;49.610;11.016;2023-12-29T22:06:32;97970.09;;;10.38;68.14
22311;BME280;11323;49.610;11.016;2023-12-29T22:11:33;97969.28;;;10.38;68.37
22311;BME280;11323;49.610;11.016;2023-12-29T22:16:35;97965.56;;;10.39;68.28
22311;BME280;11323;49.610;11.016;2023-12-29T22:21:36;97977.97;;;10.45;68.40
22311;BME280;11323;49.610;11.016;2023-12-29T22:33:26;97978.06;;;10.33;68.27
22311;BME280;11323;49.610;11.016;2023-12-29T22:38:27;97975.47;;;10.22;68.53
22311;BME280;11323;49.610;11.016;2023-12-29T22:43:29;97975.34;;;10.17;68.89
22311;BME280;11323;49.610;11.016;2023-12-29T22:48:30;97976.50;;;10.21;68.56
22311;BME280;11323;49.610;11.016;2023-12-29T22:53:32;97978.34;;;10.20;68.37
22311;BME280;11323;49.610;11.016;2023-12-29T22:58:37;97966.28;;;10.18;68.84
22311;BME280;11323;49.610;11.016;2023-12-29T23:03:38;97957.75;;;10.21;68.43
22311;BME280;11323;49.610;11.016;2023-12-29T23:08:39;97958.44;;;10.28;67.97
22311;BME280;11323;49.610;11.016;2023-12-29T23:14:18;97951.50;;;10.32;68.70
22311;BME280;11323;49.610;11.016;2023-12-29T23:19:31;97932.75;;;10.32;68.39
22311;BME280;11323;49.610;11.016;2023-12-29T23:24:39;97925.78;;;10.31;68.21
22311;BME280;11323;49.610;11.016;2023-12-29T23:29:40;97943.72;;;10.30;68.07
22311;BME280;11323;49.610;11.016;2023-12-29T23:34:46;97948.28;;;10.30;68.18
22311;BME280;11323;49.610;11.016;2023-12-29T23:39:50;97940.31;;;10.35;68.38
22311;BME280;11323;49.610;11.016;2023-12-29T23:45:12;97936.56;;;10.36;68.27
22311;BME280;11323;49.610;11.016;2023-12-29T23:50:20;97945.41;;;10.36;68.23
22311;BME280;11323;49.610;11.016;2023-12-29T23:55:22;97955.88;;;10.38;67.96
